Morrisville, North Carolina
Current Conditions -  °F | °C
As of 10:51 PM on Wednesday 22 Oct 2014 (Local Time) from KRDU Reporting Station
Clear Clear  
Wind Chill: 52°   Ceiling: Unl
Heat Index: 52°   Visibility: 10mi
Dew Point: 41°   Wind: 5mph
Humidity: 66%   Direction: NA
Pressure: 30.03"   Gusts: NA
Location:  35.82°N, 78.83°W
Report Text: KRDU 230251Z VRB04KT 10SM CLR 11/05 A3003 RMK AO2 SLP169 T01110050 51011
Loading
Personal Weather Stations






























Interactive Weather Map
Tropical Storm Tracking
New forecast layout! Learn more

10-Day Weather Forecast

Advertisements
Track Severe Weather on mobile